createdAt,value
2022-12-31T00:01:20.105Z,91.84
2022-12-31T00:03:47.781Z,91.91
2022-12-31T00:06:33.219Z,91.82
2022-12-31T00:09:03.698Z,92.10
2022-12-31T00:11:32.149Z,92.17
2022-12-31T00:14:00.380Z,92.03
2022-12-31T00:16:35.219Z,92.12
2022-12-31T00:19:05.258Z,91.98
2022-12-31T00:21:34.257Z,92.07
2022-12-31T00:24:04.098Z,91.89
2022-12-31T00:26:34.208Z,93.15
2022-12-31T00:29:02.853Z,93.49
2022-12-31T00:31:34.856Z,93.34
2022-12-31T00:34:03.665Z,93.18
2022-12-31T00:36:38.356Z,93.06
2022-12-31T00:39:07.993Z,93.14
2022-12-31T00:41:36.695Z,93.18
2022-12-31T00:44:05.239Z,93.21
2022-12-31T00:46:33.232Z,92.80
2022-12-31T00:49:01.295Z,92.39
2022-12-31T00:56:46.271Z,92.85
2022-12-31T00:59:14.542Z,93.00
2022-12-31T01:01:42.699Z,93.40
2022-12-31T01:04:14.135Z,93.51
2022-12-31T01:06:43.073Z,93.35
2022-12-31T01:09:12.908Z,93.03
2022-12-31T01:11:40.906Z,92.75
2022-12-31T01:14:12.709Z,92.77
2022-12-31T01:16:46.771Z,92.56
2022-12-31T01:19:21.111Z,92.42
2022-12-31T01:21:50.596Z,92.50
2022-12-31T01:24:18.934Z,92.30
2022-12-31T01:26:47.681Z,92.70
2022-12-31T01:29:15.836Z,92.96
2022-12-31T01:31:43.964Z,93.03
2022-12-31T01:34:11.827Z,93.07
2022-12-31T01:36:40.240Z,93.19
2022-12-31T01:39:09.636Z,93.36
2022-12-31T01:41:41.158Z,93.27
2022-12-31T01:44:12.266Z,93.28
2022-12-31T01:46:53.948Z,93.04
2022-12-31T01:50:03.970Z,93.20
2022-12-31T01:52:37.472Z,93.38
2022-12-31T01:55:15.264Z,93.65
2022-12-31T01:57:45.454Z,93.57
2022-12-31T02:00:14.274Z,93.64
2022-12-31T02:02:42.500Z,93.62
2022-12-31T02:05:36.109Z,93.79
2022-12-31T02:08:05.168Z,93.60
2022-12-31T02:10:33.465Z,93.49
2022-12-31T02:13:01.878Z,93.98
2022-12-31T02:15:47.782Z,94.57
2022-12-31T02:19:03.823Z,94.49
2022-12-31T02:22:16.767Z,94.33
2022-12-31T02:24:47.953Z,94.05
2022-12-31T02:27:32.899Z,93.92
2022-12-31T02:30:11.796Z,94.40
2022-12-31T02:32:58.664Z,94.64
2022-12-31T02:35:37.285Z,94.52
2022-12-31T02:38:09.543Z,94.45
2022-12-31T02:40:38.721Z,94.22
2022-12-31T02:43:07.552Z,94.76
2022-12-31T02:45:40.412Z,94.68
2022-12-31T02:48:22.540Z,95.17
2022-12-31T02:51:14.962Z,95.65
2022-12-31T02:54:10.605Z,96.13
2022-12-31T02:56:42.604Z,95.72
2022-12-31T02:59:26.619Z,95.05
2022-12-31T03:02:07.024Z,94.47
2022-12-31T03:04:35.975Z,94.20
2022-12-31T03:07:18.338Z,94.21
2022-12-31T03:09:46.726Z,94.24
2022-12-31T03:12:15.741Z,94.31
2022-12-31T03:14:44.367Z,94.49
2022-12-31T03:17:12.827Z,94.44
2022-12-31T03:19:41.246Z,94.22
2022-12-31T03:22:12.772Z,94.16
2022-12-31T03:24:41.195Z,94.05
2022-12-31T03:27:09.801Z,93.79
2022-12-31T03:29:37.692Z,93.62
2022-12-31T03:32:05.799Z,93.74
2022-12-31T03:34:33.662Z,93.79
2022-12-31T03:37:01.695Z,94.02
2022-12-31T03:39:29.501Z,93.98
2022-12-31T03:41:57.288Z,93.91
2022-12-31T03:44:25.328Z,93.98
2022-12-31T03:46:53.300Z,93.89
2022-12-31T03:49:21.332Z,93.79
2022-12-31T03:51:49.297Z,94.01
2022-12-31T03:54:17.579Z,94.20
2022-12-31T03:56:48.875Z,94.07
2022-12-31T03:59:17.721Z,94.18
2022-12-31T04:01:46.704Z,94.30
2022-12-31T04:04:14.889Z,94.03
2022-12-31T04:06:42.967Z,94.24
2022-12-31T04:09:11.391Z,94.18
2022-12-31T04:11:39.736Z,93.95
2022-12-31T04:14:07.956Z,94.06
2022-12-31T04:16:36.094Z,93.83
2022-12-31T04:19:04.503Z,93.83
2022-12-31T04:21:35.138Z,93.97
2022-12-31T04:24:03.761Z,93.80
2022-12-31T04:26:31.493Z,93.71
2022-12-31T04:28:59.326Z,93.71
2022-12-31T04:31:28.004Z,93.46
2022-12-31T04:33:55.722Z,93.43
2022-12-31T04:36:23.478Z,93.43
2022-12-31T04:38:51.518Z,93.32
2022-12-31T04:41:19.654Z,93.23
2022-12-31T04:43:55.906Z,93.35
2022-12-31T04:46:27.342Z,93.36
2022-12-31T04:48:55.591Z,93.43
2022-12-31T04:51:24.165Z,93.54
2022-12-31T04:53:53.344Z,93.74
2022-12-31T04:56:21.945Z,94.08
2022-12-31T04:58:50.754Z,94.29
2022-12-31T05:01:18.987Z,94.48
2022-12-31T05:03:47.416Z,94.42
2022-12-31T05:06:18.337Z,94.36
2022-12-31T05:08:47.152Z,94.31
2022-12-31T05:11:16.322Z,94.42
2022-12-31T05:13:44.410Z,94.51
2022-12-31T05:16:12.981Z,94.32
2022-12-31T05:18:41.270Z,94.52
2022-12-31T05:21:15.412Z,94.24
2022-12-31T05:23:44.477Z,94.34
2022-12-31T05:26:12.425Z,94.10
2022-12-31T05:28:40.704Z,94.17
2022-12-31T05:31:09.399Z,94.05
2022-12-31T05:33:37.729Z,94.29
2022-12-31T05:36:05.615Z,94.18
2022-12-31T05:38:33.918Z,94.10
2022-12-31T05:41:07.691Z,94.32
2022-12-31T05:43:36.002Z,94.29
2022-12-31T05:46:05.136Z,94.22
2022-12-31T05:48:33.614Z,94.21
2022-12-31T05:51:01.722Z,94.32
2022-12-31T05:53:30.011Z,94.23
2022-12-31T05:55:57.870Z,94.34
2022-12-31T05:58:26.124Z,94.38
2022-12-31T06:00:53.852Z,94.42
2022-12-31T06:03:22.092Z,94.31
2022-12-31T06:05:50.251Z,94.51
2022-12-31T06:08:18.252Z,94.41
2022-12-31T06:10:46.402Z,94.48
2022-12-31T06:13:14.309Z,94.42
2022-12-31T06:15:42.280Z,94.35
2022-12-31T06:18:10.706Z,94.10
2022-12-31T06:20:38.985Z,93.92
2022-12-31T06:23:06.786Z,93.69
2022-12-31T06:25:35.688Z,93.47
2022-12-31T06:28:05.195Z,93.26
2022-12-31T06:30:33.082Z,93.04
2022-12-31T06:33:01.092Z,92.94
2022-12-31T06:35:29.163Z,92.85
2022-12-31T06:37:57.466Z,92.64
2022-12-31T06:40:25.380Z,92.60
2022-12-31T06:42:59.563Z,92.41
2022-12-31T06:45:28.158Z,92.40
2022-12-31T06:47:56.199Z,92.37
2022-12-31T06:50:24.309Z,92.14
2022-12-31T06:52:52.584Z,91.96
2022-12-31T06:55:22.113Z,91.92
2022-12-31T06:57:50.281Z,91.80
2022-12-31T07:00:19.235Z,91.64
2022-12-31T07:02:59.222Z,91.50
2022-12-31T07:05:59.975Z,91.32
2022-12-31T07:08:41.428Z,91.26
2022-12-31T07:11:20.913Z,91.12
2022-12-31T07:14:23.312Z,90.85
2022-12-31T07:17:03.215Z,90.88
2022-12-31T07:19:45.577Z,90.80
2022-12-31T07:22:16.356Z,90.65
2022-12-31T07:24:44.765Z,90.49
2022-12-31T07:27:21.028Z,90.24
2022-12-31T07:30:02.402Z,90.15
2022-12-31T07:32:57.567Z,89.93
2022-12-31T07:35:35.316Z,89.87
2022-12-31T07:38:38.672Z,89.69
2022-12-31T07:41:18.220Z,89.54
2022-12-31T07:43:56.212Z,89.48
2022-12-31T07:46:35.949Z,89.38
2022-12-31T07:49:04.187Z,89.11
2022-12-31T07:51:32.172Z,89.10
2022-12-31T07:53:59.908Z,88.91
2022-12-31T07:56:29.266Z,88.90
2022-12-31T07:59:09.228Z,88.98
2022-12-31T08:01:51.881Z,88.97
2022-12-31T08:04:49.341Z,89.04
2022-12-31T08:07:22.839Z,89.00
2022-12-31T08:10:00.478Z,88.73
2022-12-31T08:12:33.833Z,88.60
2022-12-31T08:15:02.413Z,88.33
2022-12-31T08:17:30.523Z,88.20
2022-12-31T08:19:58.490Z,87.85
2022-12-31T08:22:32.209Z,87.76
2022-12-31T08:25:22.318Z,87.75
2022-12-31T08:28:24.289Z,87.57
2022-12-31T08:30:55.337Z,87.32
2022-12-31T08:33:29.525Z,86.97
2022-12-31T08:36:17.090Z,86.99
2022-12-31T08:38:58.235Z,86.84
2022-12-31T08:41:43.432Z,86.46
2022-12-31T08:44:35.826Z,86.06
2022-12-31T08:47:03.634Z,85.55
2022-12-31T08:49:34.176Z,85.52
2022-12-31T08:52:03.084Z,85.09
2022-12-31T08:54:31.760Z,84.24
2022-12-31T08:57:16.135Z,83.92
2022-12-31T09:00:06.038Z,83.65
2022-12-31T09:02:52.585Z,83.70
2022-12-31T09:05:35.563Z,83.46
2022-12-31T09:08:09.158Z,83.22
2022-12-31T09:10:55.335Z,83.13
2022-12-31T09:13:32.748Z,83.04
2022-12-31T09:16:28.684Z,82.86
2022-12-31T09:18:56.704Z,82.11
2022-12-31T09:21:25.322Z,81.70
2022-12-31T09:23:53.392Z,80.88
2022-12-31T09:26:49.337Z,80.63
2022-12-31T09:29:38.068Z,79.99
2022-12-31T09:32:14.392Z,79.56
2022-12-31T09:34:47.497Z,79.04
2022-12-31T09:37:20.615Z,78.96
2022-12-31T09:39:48.901Z,78.48
2022-12-31T09:42:49.339Z,78.05
2022-12-31T09:45:35.721Z,78.04
2022-12-31T09:48:45.897Z,77.59
2022-12-31T09:51:39.153Z,77.41
2022-12-31T09:54:22.055Z,77.54
2022-12-31T09:57:25.372Z,77.71
2022-12-31T10:00:01.523Z,77.50
2022-12-31T10:03:00.670Z,77.44
2022-12-31T10:05:56.583Z,77.97
2022-12-31T10:09:05.942Z,77.85
2022-12-31T10:12:02.770Z,78.08
2022-12-31T10:15:06.372Z,78.13
2022-12-31T10:18:17.875Z,78.41
2022-12-31T10:20:48.119Z,78.30
2022-12-31T10:23:32.435Z,77.92
2022-12-31T10:26:03.143Z,77.76
2022-12-31T10:28:45.863Z,77.28
2022-12-31T10:32:04.209Z,77.40
2022-12-31T10:34:46.513Z,76.96
2022-12-31T10:37:17.898Z,76.58
2022-12-31T10:40:10.364Z,76.61
2022-12-31T10:42:50.662Z,76.70
2022-12-31T10:45:21.862Z,76.99
2022-12-31T10:48:22.152Z,77.32
2022-12-31T10:51:02.192Z,77.66
2022-12-31T10:53:51.834Z,77.80
2022-12-31T10:56:37.695Z,77.77
2022-12-31T10:59:34.514Z,77.90
2022-12-31T11:02:17.897Z,77.85
2022-12-31T11:04:54.565Z,77.59
2022-12-31T11:07:40.835Z,77.44
2022-12-31T11:10:24.636Z,77.34
2022-12-31T11:13:19.698Z,77.48
2022-12-31T11:15:57.992Z,76.86
2022-12-31T11:19:30.562Z,76.73
2022-12-31T11:22:23.371Z,76.49
2022-12-31T11:24:57.303Z,76.05
2022-12-31T11:27:49.504Z,75.88
2022-12-31T11:30:36.669Z,75.61
2022-12-31T11:33:19.642Z,75.57
2022-12-31T11:35:59.596Z,75.38
2022-12-31T11:38:31.764Z,75.20
2022-12-31T11:41:28.315Z,75.16
2022-12-31T11:44:23.881Z,75.26
2022-12-31T11:47:13.497Z,75.37
2022-12-31T11:49:44.158Z,75.17
2022-12-31T11:52:31.696Z,74.90
2022-12-31T11:55:12.522Z,74.55
2022-12-31T11:57:53.369Z,74.49
2022-12-31T12:00:24.526Z,74.23
2022-12-31T12:02:58.493Z,74.23
2022-12-31T12:05:27.490Z,73.71
2022-12-31T12:07:55.577Z,73.29
2022-12-31T12:10:36.463Z,73.08
2022-12-31T12:13:22.361Z,73.04
2022-12-31T12:15:54.874Z,72.82
2022-12-31T12:18:37.040Z,72.82
2022-12-31T12:21:13.175Z,72.74
2022-12-31T12:23:42.552Z,72.61
2022-12-31T12:26:36.233Z,72.70
2022-12-31T12:29:26.849Z,72.99
2022-12-31T12:32:02.137Z,73.16
2022-12-31T12:34:32.731Z,73.13
2022-12-31T12:37:01.546Z,73.46
2022-12-31T12:39:31.987Z,73.71
2022-12-31T12:42:05.474Z,73.89
2022-12-31T12:44:34.428Z,73.88
2022-12-31T12:47:08.681Z,73.84
2022-12-31T12:49:42.529Z,74.11
2022-12-31T12:52:30.482Z,74.29
2022-12-31T12:55:19.319Z,74.59
2022-12-31T12:58:19.053Z,74.69
2022-12-31T13:00:52.215Z,74.63
2022-12-31T13:03:22.949Z,74.71
2022-12-31T13:06:21.957Z,74.47
2022-12-31T13:09:16.606Z,74.17
2022-12-31T13:12:08.147Z,74.33
2022-12-31T13:14:42.138Z,74.38
2022-12-31T13:17:41.020Z,74.47
2022-12-31T13:20:38.362Z,74.33
2022-12-31T13:23:26.335Z,74.35
2022-12-31T13:26:24.326Z,74.15
2022-12-31T13:28:53.537Z,73.83
2022-12-31T13:31:30.323Z,74.05
2022-12-31T13:34:06.398Z,74.06
2022-12-31T13:36:38.525Z,74.01
2022-12-31T13:39:20.999Z,74.05
2022-12-31T13:41:59.189Z,73.97
2022-12-31T13:44:29.831Z,74.06
2022-12-31T13:47:11.494Z,74.10
2022-12-31T13:50:14.398Z,74.04
2022-12-31T13:53:04.857Z,74.28
2022-12-31T13:55:35.290Z,74.36
2022-12-31T13:58:26.816Z,74.58
2022-12-31T14:01:03.695Z,74.72
2022-12-31T14:03:40.260Z,74.70
2022-12-31T14:06:43.463Z,74.74
2022-12-31T14:09:18.075Z,74.79
2022-12-31T14:12:09.746Z,74.99
2022-12-31T14:14:43.743Z,75.03
2022-12-31T14:17:42.564Z,75.06
2022-12-31T14:20:21.831Z,75.40
2022-12-31T14:23:13.786Z,75.60
2022-12-31T14:25:49.281Z,75.80
2022-12-31T14:28:27.752Z,75.90
2022-12-31T14:31:42.787Z,76.28
2022-12-31T14:34:29.765Z,76.52
2022-12-31T14:37:10.137Z,76.84
2022-12-31T14:40:18.250Z,77.03
2022-12-31T14:43:00.668Z,77.14
2022-12-31T14:46:04.500Z,77.38
2022-12-31T14:48:57.146Z,77.47
2022-12-31T14:51:30.007Z,77.56
2022-12-31T14:53:58.576Z,77.91
2022-12-31T14:56:53.086Z,78.01
2022-12-31T14:59:34.491Z,78.39
2022-12-31T15:02:27.243Z,78.57
2022-12-31T15:05:11.531Z,78.74
2022-12-31T15:07:57.936Z,78.78
2022-12-31T15:10:34.507Z,78.71
2022-12-31T15:13:15.081Z,78.83
2022-12-31T15:16:04.087Z,78.95
2022-12-31T15:18:52.503Z,79.02
2022-12-31T15:21:39.190Z,79.16
2022-12-31T15:24:18.915Z,79.46
2022-12-31T15:26:53.705Z,79.59
2022-12-31T15:29:44.439Z,79.82
2022-12-31T15:32:23.781Z,79.97
2022-12-31T15:35:45.432Z,80.03
2022-12-31T15:38:13.636Z,80.03
2022-12-31T15:40:47.085Z,80.27
2022-12-31T15:43:28.132Z,80.45
2022-12-31T15:45:57.873Z,80.49
2022-12-31T15:48:51.650Z,80.41
2022-12-31T15:51:26.124Z,80.58
2022-12-31T15:53:57.333Z,80.61
2022-12-31T15:56:38.911Z,80.51
2022-12-31T15:59:14.368Z,80.58
2022-12-31T16:01:44.476Z,80.61
2022-12-31T16:04:15.997Z,80.61
2022-12-31T16:06:50.639Z,80.56
2022-12-31T16:09:29.176Z,80.63
2022-12-31T16:11:59.901Z,80.64
2022-12-31T16:14:52.721Z,80.53
2022-12-31T16:17:29.111Z,80.67
2022-12-31T16:19:58.701Z,80.55
2022-12-31T16:22:38.693Z,80.53
2022-12-31T16:25:33.985Z,80.48
2022-12-31T16:28:03.715Z,80.46
2022-12-31T16:30:33.437Z,80.42
2022-12-31T16:33:12.244Z,80.59
2022-12-31T16:35:41.716Z,80.52
2022-12-31T16:38:13.863Z,80.49
2022-12-31T16:41:06.320Z,80.53
2022-12-31T16:43:38.069Z,80.68
2022-12-31T16:46:16.288Z,80.72
2022-12-31T16:48:51.779Z,80.72
2022-12-31T16:51:22.810Z,80.71
2022-12-31T16:53:51.656Z,80.88
2022-12-31T16:56:26.312Z,80.93
2022-12-31T16:59:04.830Z,81.02
2022-12-31T17:01:35.674Z,81.13
2022-12-31T17:04:10.470Z,81.11
2022-12-31T17:06:39.229Z,81.14
2022-12-31T17:09:14.422Z,81.38
2022-12-31T17:11:55.443Z,81.44
2022-12-31T17:14:29.204Z,81.53
2022-12-31T17:17:06.979Z,81.46
2022-12-31T17:19:41.771Z,81.48
2022-12-31T17:22:37.284Z,81.84
2022-12-31T17:25:28.807Z,81.82
2022-12-31T17:28:05.200Z,82.10
2022-12-31T17:30:33.593Z,82.37
2022-12-31T17:33:03.491Z,82.67
2022-12-31T17:36:12.872Z,82.75
2022-12-31T17:38:42.142Z,82.63
2022-12-31T17:41:26.336Z,82.97
2022-12-31T17:43:56.189Z,83.05
2022-12-31T17:46:25.954Z,83.32
2022-12-31T17:48:59.183Z,83.26
2022-12-31T17:51:27.072Z,83.14
2022-12-31T17:53:55.224Z,83.09
2022-12-31T17:56:23.583Z,82.85
2022-12-31T17:58:53.443Z,82.64
2022-12-31T18:01:23.757Z,82.41
2022-12-31T18:03:51.897Z,82.55
2022-12-31T18:06:20.029Z,82.35
2022-12-31T18:08:47.812Z,82.33
2022-12-31T18:11:22.298Z,82.19
2022-12-31T18:13:50.683Z,82.13
2022-12-31T18:16:18.696Z,81.65
2022-12-31T18:18:46.720Z,81.01
2022-12-31T18:21:28.323Z,80.37
2022-12-31T18:26:24.963Z,79.42
2022-12-31T18:28:53.283Z,79.04
2022-12-31T18:31:27.773Z,78.61
2022-12-31T18:33:59.334Z,78.62
2022-12-31T18:36:28.501Z,78.42
2022-12-31T18:38:57.042Z,78.24
2022-12-31T18:41:28.422Z,78.12
2022-12-31T18:43:56.888Z,78.04
2022-12-31T18:46:25.410Z,77.98
2022-12-31T18:48:53.651Z,77.79
2022-12-31T18:51:31.521Z,77.70
2022-12-31T18:54:01.994Z,77.59
2022-12-31T18:56:30.569Z,77.38
2022-12-31T18:58:58.505Z,76.94
2022-12-31T19:01:32.564Z,76.69
2022-12-31T19:04:03.595Z,76.41
2022-12-31T19:06:33.085Z,75.88
2022-12-31T19:09:01.176Z,75.66
2022-12-31T19:11:29.965Z,75.68
2022-12-31T19:14:01.332Z,75.55
2022-12-31T19:16:30.926Z,75.45
2022-12-31T19:19:02.603Z,75.47
2022-12-31T19:21:32.931Z,75.17
2022-12-31T19:24:01.890Z,75.00
2022-12-31T19:26:30.051Z,74.90
2022-12-31T19:28:57.713Z,75.06
2022-12-31T19:31:25.561Z,74.66
2022-12-31T19:33:53.706Z,74.76
2022-12-31T19:36:21.724Z,74.60
2022-12-31T19:38:49.398Z,74.73
2022-12-31T19:41:19.418Z,74.46
2022-12-31T19:43:47.730Z,74.54
2022-12-31T19:46:19.345Z,74.59
2022-12-31T19:48:47.510Z,74.62
2022-12-31T19:51:18.747Z,74.75
2022-12-31T19:53:48.223Z,74.97
2022-12-31T19:56:19.210Z,75.23
2022-12-31T19:58:47.870Z,75.41
2022-12-31T20:01:22.507Z,75.57
2022-12-31T20:03:51.473Z,75.68
2022-12-31T20:06:20.044Z,75.62
2022-12-31T20:08:48.126Z,75.84
2022-12-31T20:11:18.383Z,75.87
2022-12-31T20:13:48.248Z,75.88
2022-12-31T20:16:18.639Z,76.06
2022-12-31T20:18:47.919Z,76.09
2022-12-31T20:21:19.098Z,76.18
2022-12-31T20:23:48.677Z,76.31
2022-12-31T20:26:17.573Z,76.39
2022-12-31T20:28:46.085Z,76.58
2022-12-31T20:31:16.805Z,76.68
2022-12-31T20:33:45.544Z,76.74
2022-12-31T20:36:16.500Z,76.89
2022-12-31T20:38:45.405Z,76.90
2022-12-31T20:41:23.221Z,77.10
2022-12-31T20:43:51.526Z,77.26
2022-12-31T20:46:25.059Z,77.45
2022-12-31T20:48:55.224Z,77.61
2022-12-31T20:51:23.568Z,77.67
2022-12-31T20:53:57.218Z,77.80
2022-12-31T20:56:26.699Z,77.85
2022-12-31T20:58:54.733Z,77.99
2022-12-31T21:01:23.210Z,78.03
2022-12-31T21:04:07.806Z,78.06
2022-12-31T21:06:36.828Z,78.10
2022-12-31T21:09:07.614Z,78.10
2022-12-31T21:11:36.322Z,78.06
2022-12-31T21:14:04.424Z,78.07
2022-12-31T21:16:32.510Z,77.87
2022-12-31T21:19:00.488Z,77.74
2022-12-31T21:21:28.519Z,77.73
2022-12-31T21:23:56.475Z,77.66
2022-12-31T21:26:25.126Z,77.78
2022-12-31T21:28:53.395Z,77.61
2022-12-31T21:31:21.569Z,77.47
2022-12-31T21:33:49.451Z,77.57
2022-12-31T21:36:17.295Z,77.43
2022-12-31T21:38:45.067Z,77.34
2022-12-31T21:41:13.252Z,77.28
2022-12-31T21:43:41.260Z,77.42
2022-12-31T21:46:09.755Z,77.52
2022-12-31T21:48:37.634Z,77.48
2022-12-31T21:51:10.844Z,77.44
2022-12-31T21:53:39.043Z,77.43
2022-12-31T21:56:07.714Z,77.64
2022-12-31T21:58:40.154Z,77.59
2022-12-31T22:01:20.127Z,77.90
2022-12-31T22:03:48.150Z,77.95
2022-12-31T22:06:21.334Z,78.00
2022-12-31T22:08:51.609Z,78.60
2022-12-31T22:11:21.251Z,78.83
2022-12-31T22:13:50.047Z,79.14
2022-12-31T22:16:19.282Z,79.33
2022-12-31T22:18:48.050Z,79.38
2022-12-31T22:21:24.456Z,79.34
2022-12-31T22:23:55.024Z,79.49
2022-12-31T22:26:26.096Z,79.71
2022-12-31T22:28:54.001Z,79.86
2022-12-31T22:31:23.538Z,80.06
2022-12-31T22:33:53.077Z,80.13
2022-12-31T22:36:23.965Z,80.20
2022-12-31T22:38:56.076Z,80.29
2022-12-31T22:41:25.381Z,80.09
2022-12-31T22:44:02.650Z,80.16
2022-12-31T22:46:33.955Z,79.95
2022-12-31T22:49:04.234Z,79.95
2022-12-31T22:51:55.288Z,80.00
2022-12-31T22:54:21.195Z,80.10
2022-12-31T22:56:48.960Z,80.32
2022-12-31T22:59:16.871Z,80.38
2022-12-31T23:01:45.115Z,80.13
2022-12-31T23:04:13.558Z,80.14
2022-12-31T23:06:41.615Z,80.00
2022-12-31T23:09:11.742Z,80.06
2022-12-31T23:11:39.921Z,80.06
2022-12-31T23:14:14.700Z,80.16
2022-12-31T23:16:42.940Z,80.01
2022-12-31T23:19:11.522Z,79.81
2022-12-31T23:21:39.457Z,79.96
2022-12-31T23:24:13.481Z,80.08
2022-12-31T23:26:45.944Z,80.33
2022-12-31T23:29:13.990Z,80.41
2022-12-31T23:31:42.220Z,80.57
2022-12-31T23:34:10.480Z,80.73
2022-12-31T23:36:38.501Z,80.74
2022-12-31T23:39:06.519Z,80.81
2022-12-31T23:41:34.564Z,81.01
2022-12-31T23:44:02.479Z,81.21
2022-12-31T23:46:30.618Z,81.06
2022-12-31T23:48:58.377Z,81.33
2022-12-31T23:51:26.468Z,81.11
2022-12-31T23:53:54.125Z,81.27
2022-12-31T23:56:24.042Z,81.22
2022-12-31T23:58:59.368Z,81.20
